<?xml version='1.0' encoding='UTF-8'?><gpx version="1.1" creator="JPX - https://github.com/jenetics/jpx" xmlns="http://www.topografix.com/GPX/1/1"><trk><trkseg><trkpt lat="49.09348991463271" lon="4.920199986830707"><ele>190.0</ele><time>2026-04-15T13:11:48Z</time></trkpt><trkpt lat="49.09347534499512" lon="4.9203453731557225"><ele>190.0</ele><time>2026-04-15T13:11:52Z</time></trkpt><trkpt lat="49.0934995683378" lon="4.9204657544813175"><ele>190.0</ele><time>2026-04-15T13:11:54Z</time></trkpt><trkpt lat="49.09359408210869" lon="4.920510803017413"><ele>190.0</ele><time>2026-04-15T13:11:56Z</time></trkpt><trkpt lat="49.09366765436163" lon="4.920557271021972"><ele>190.0</ele><time>2026-04-15T13:11:58Z</time></trkpt><trkpt lat="49.093744989271784" lon="4.920607790511442"><ele>190.0</ele><time>2026-04-15T13:12:00Z</time></trkpt><trkpt lat="49.093817571455475" lon="4.920657206783887"><ele>190.0</ele><time>2026-04-15T13:12:02Z</time></trkpt><trkpt lat="49.09388417016039" lon="4.920705969967648"><ele>190.0</ele><time>2026-04-15T13:12:04Z</time></trkpt><trkpt lat="49.0939420207163" lon="4.92074464536013"><ele>190.0</ele><time>2026-04-15T13:12:06Z</time></trkpt><trkpt lat="49.0940141092038" lon="4.920799193689079"><ele>190.0</ele><time>2026-04-15T13:12:08Z</time></trkpt><trkpt lat="49.09408237971929" lon="4.920850585565475"><ele>190.0</ele><time>2026-04-15T13:12:10Z</time></trkpt><trkpt lat="49.09415552707953" lon="4.920897367968166"><ele>190.0</ele><time>2026-04-15T13:12:12Z</time></trkpt><trkpt lat="49.09422533981407" lon="4.920948611104682"><ele>190.42857142857144</ele><time>2026-04-15T13:12:14Z</time></trkpt><trkpt lat="49.094292886234285" lon="4.920998701754784"><ele>190.85714285714286</ele><time>2026-04-15T13:12:16Z</time></trkpt><trkpt lat="49.09436163929327" lon="4.9210557872075675"><ele>191.28571428571428</ele><time>2026-04-15T13:12:18Z</time></trkpt><trkpt lat="49.094428220818436" lon="4.921111458749055"><ele>191.71428571428572</ele><time>2026-04-15T13:12:20Z</time></trkpt><trkpt lat="49.0944844298263" lon="4.9211573035088305"><ele>192.14285714285714</ele><time>2026-04-15T13:12:22Z</time></trkpt><trkpt lat="49.09456344605994" lon="4.921224906578677"><ele>192.57142857142858</ele><time>2026-04-15T13:12:25Z</time></trkpt><trkpt lat="49.09461719984557" lon="4.921278362808082"><ele>193.0</ele><time>2026-04-15T13:12:27Z</time></trkpt><trkpt lat="49.094702797755154" lon="4.9213567012917006"><ele>193.00000000000003</ele><time>2026-04-15T13:12:30Z</time></trkpt><trkpt lat="49.094760307086915" lon="4.921416317595613"><ele>193.0</ele><time>2026-04-15T13:12:33Z</time></trkpt><trkpt lat="49.09481427266555" lon="4.921476028874136"><ele>193.0</ele><time>2026-04-15T13:12:36Z</time></trkpt><trkpt lat="49.09486982977205" lon="4.92154461536325"><ele>193.0</ele><time>2026-04-15T13:12:39Z</time></trkpt><trkpt lat="49.094933404577965" lon="4.92161971088158"><ele>193.0</ele><time>2026-04-15T13:12:42Z</time></trkpt><trkpt lat="49.094995272952495" lon="4.92168846454164"><ele>193.00000000000003</ele><time>2026-04-15T13:12:45Z</time></trkpt><trkpt lat="49.09506452147063" lon="4.921760457417586"><ele>193.0</ele><time>2026-04-15T13:12:48Z</time></trkpt><trkpt lat="49.095158408185036" lon="4.921874008191805"><ele>193.4</ele><time>2026-04-15T13:12:51Z</time></trkpt><trkpt lat="49.09522832584644" lon="4.921967615536769"><ele>193.8</ele><time>2026-04-15T13:12:53Z</time></trkpt><trkpt lat="49.09528277934624" lon="4.922073842750596"><ele>194.2</ele><time>2026-04-15T13:12:56Z</time></trkpt><trkpt lat="49.095330964265294" lon="4.922190584121527"><ele>194.6</ele><time>2026-04-15T13:12:58Z</time></trkpt><trkpt lat="49.0953870772613" lon="4.9223129620029855"><ele>195.0</ele><time>2026-04-15T13:13:00Z</time></trkpt><trkpt lat="49.09545688962563" lon="4.922401965344718"><ele>195.0</ele><time>2026-04-15T13:13:02Z</time></trkpt><trkpt lat="49.09554810516532" lon="4.922445196714491"><ele>195.0</ele><time>2026-04-15T13:13:04Z</time></trkpt><trkpt lat="49.09563809545368" lon="4.9224765161824156"><ele>195.0</ele><time>2026-04-15T13:13:06Z</time></trkpt><trkpt lat="49.09571521608057" lon="4.922551077437413"><ele>195.0</ele><time>2026-04-15T13:13:08Z</time></trkpt><trkpt lat="49.09578300104407" lon="4.922642388104735"><ele>195.0</ele><time>2026-04-15T13:13:10Z</time></trkpt><trkpt lat="49.095847967679575" lon="4.922728767751222"><ele>195.16666666666666</ele><time>2026-04-15T13:13:12Z</time></trkpt><trkpt lat="49.09590017911126" lon="4.922815317140793"><ele>195.33333333333331</ele><time>2026-04-15T13:13:14Z</time></trkpt><trkpt lat="49.09594286733812" lon="4.922900102718689"><ele>195.5</ele><time>2026-04-15T13:13:16Z</time></trkpt><trkpt lat="49.095992587948984" lon="4.922989810055113"><ele>195.66666666666666</ele><time>2026-04-15T13:13:18Z</time></trkpt><trkpt lat="49.096046873802976" lon="4.923072253666219"><ele>195.83333333333331</ele><time>2026-04-15T13:13:20Z</time></trkpt><trkpt lat="49.096102119350505" lon="4.923163694711707"><ele>196.0</ele><time>2026-04-15T13:13:22Z</time></trkpt><trkpt lat="49.09615400435443" lon="4.923253935603378"><ele>195.99999999999997</ele><time>2026-04-15T13:13:24Z</time></trkpt><trkpt lat="49.09620087780091" lon="4.923352815397907"><ele>196.0</ele><time>2026-04-15T13:13:26Z</time></trkpt><trkpt lat="49.09625119530139" lon="4.923444162606355"><ele>196.0</ele><time>2026-04-15T13:13:28Z</time></trkpt><trkpt lat="49.09630095459567" lon="4.92354334070415"><ele>196.0</ele><time>2026-04-15T13:13:30Z</time></trkpt><trkpt lat="49.09634987405585" lon="4.923646379194056"><ele>195.99999999999997</ele><time>2026-04-15T13:13:32Z</time></trkpt><trkpt lat="49.09639490475173" lon="4.923752018068021"><ele>196.0</ele><time>2026-04-15T13:13:34Z</time></trkpt><trkpt lat="49.096442571341825" lon="4.923851637408344"><ele>195.99999999999997</ele><time>2026-04-15T13:13:36Z</time></trkpt><trkpt lat="49.096489392701585" lon="4.923961165184435"><ele>196.0</ele><time>2026-04-15T13:13:38Z</time></trkpt><trkpt lat="49.09653335391905" lon="4.924063642468409"><ele>196.0</ele><time>2026-04-15T13:13:40Z</time></trkpt><trkpt lat="49.096578088849164" lon="4.924168760170327"><ele>196.0</ele><time>2026-04-15T13:13:42Z</time></trkpt><trkpt lat="49.09662329691956" lon="4.924268741888657"><ele>195.99999999999997</ele><time>2026-04-15T13:13:44Z</time></trkpt><trkpt lat="49.09667242850113" lon="4.924363057766991"><ele>196.0</ele><time>2026-04-15T13:13:46Z</time></trkpt><trkpt lat="49.09671195470921" lon="4.9244745579493285"><ele>196.16666666666666</ele><time>2026-04-15T13:13:48Z</time></trkpt><trkpt lat="49.09675648085995" lon="4.924580402869073"><ele>196.33333333333331</ele><time>2026-04-15T13:13:50Z</time></trkpt><trkpt lat="49.09679926193678" lon="4.924676159787281"><ele>196.5</ele><time>2026-04-15T13:13:52Z</time></trkpt><trkpt lat="49.096838272174075" lon="4.924780455173784"><ele>196.66666666666669</ele><time>2026-04-15T13:13:54Z</time></trkpt><trkpt lat="49.096880186042505" lon="4.924880773201169"><ele>196.83333333333334</ele><time>2026-04-15T13:13:56Z</time></trkpt><trkpt lat="49.096919650002896" lon="4.924983696908785"><ele>197.0</ele><time>2026-04-15T13:13:58Z</time></trkpt><trkpt lat="49.09696153760065" lon="4.925085819026391"><ele>197.00000000000003</ele><time>2026-04-15T13:14:00Z</time></trkpt><trkpt lat="49.09700341515855" lon="4.925187025564183"><ele>197.0</ele><time>2026-04-15T13:14:02Z</time></trkpt><trkpt lat="49.097046540625364" lon="4.92528975927574"><ele>197.0</ele><time>2026-04-15T13:14:04Z</time></trkpt><trkpt lat="49.09709411272661" lon="4.9253938313264385"><ele>197.0</ele><time>2026-04-15T13:14:06Z</time></trkpt><trkpt lat="49.09713939479884" lon="4.92549811979056"><ele>197.00000000000003</ele><time>2026-04-15T13:14:08Z</time></trkpt><trkpt lat="49.09718214208018" lon="4.925606022951007"><ele>197.0</ele><time>2026-04-15T13:14:10Z</time></trkpt><trkpt lat="49.0972263022282" lon="4.925707588060725"><ele>197.00000000000003</ele><time>2026-04-15T13:14:12Z</time></trkpt><trkpt lat="49.09726926679277" lon="4.925811149862973"><ele>197.0</ele><time>2026-04-15T13:14:14Z</time></trkpt><trkpt lat="49.09731198429607" lon="4.925916562989161"><ele>197.0</ele><time>2026-04-15T13:14:16Z</time></trkpt><trkpt lat="49.09736095545828" lon="4.926019632465453"><ele>197.0</ele><time>2026-04-15T13:14:18Z</time></trkpt><trkpt lat="49.09740301522426" lon="4.92612744959863"><ele>197.00000000000003</ele><time>2026-04-15T13:14:20Z</time></trkpt><trkpt lat="49.09744344594832" lon="4.9262249644064395"><ele>197.0</ele><time>2026-04-15T13:14:22Z</time></trkpt><trkpt lat="49.0974861646191" lon="4.926328201207947"><ele>197.33333333333334</ele><time>2026-04-15T13:14:24Z</time></trkpt><trkpt lat="49.097526919481936" lon="4.926431110656612"><ele>197.66666666666669</ele><time>2026-04-15T13:14:26Z</time></trkpt><trkpt lat="49.09756789053961" lon="4.926535142803146"><ele>198.0</ele><time>2026-04-15T13:14:28Z</time></trkpt><trkpt lat="49.09761227936049" lon="4.926640380785372"><ele>198.33333333333331</ele><time>2026-04-15T13:14:30Z</time></trkpt><trkpt lat="49.09765942879221" lon="4.926748660791383"><ele>198.66666666666666</ele><time>2026-04-15T13:14:32Z</time></trkpt><trkpt lat="49.09769988836905" lon="4.926845785944435"><ele>199.0</ele><time>2026-04-15T13:14:34Z</time></trkpt><trkpt lat="49.097745765679264" lon="4.92695025000761"><ele>198.99999999999997</ele><time>2026-04-15T13:14:36Z</time></trkpt><trkpt lat="49.09779179680447" lon="4.927054254299027"><ele>199.0</ele><time>2026-04-15T13:14:38Z</time></trkpt><trkpt lat="49.0978323707084" lon="4.927157938325429"><ele>199.0</ele><time>2026-04-15T13:14:40Z</time></trkpt><trkpt lat="49.097877168436355" lon="4.92726486763265"><ele>199.0</ele><time>2026-04-15T13:14:42Z</time></trkpt><trkpt lat="49.097924449508014" lon="4.927375558751562"><ele>198.99999999999997</ele><time>2026-04-15T13:14:44Z</time></trkpt><trkpt lat="49.09797056915143" lon="4.927484577063322"><ele>199.0</ele><time>2026-04-15T13:14:46Z</time></trkpt><trkpt lat="49.098017455341044" lon="4.927593001868982"><ele>198.99999999999997</ele><time>2026-04-15T13:14:48Z</time></trkpt><trkpt lat="49.09806328514427" lon="4.927704153662278"><ele>199.0</ele><time>2026-04-15T13:14:50Z</time></trkpt><trkpt lat="49.09810927196008" lon="4.927816332030934"><ele>199.0</ele><time>2026-04-15T13:14:52Z</time></trkpt><trkpt lat="49.09815918451505" lon="4.927928732333275"><ele>199.0</ele><time>2026-04-15T13:14:54Z</time></trkpt><trkpt lat="49.09819995585163" lon="4.928034645325157"><ele>198.99999999999997</ele><time>2026-04-15T13:14:56Z</time></trkpt><trkpt lat="49.09824423560939" lon="4.928147788800696"><ele>199.0</ele><time>2026-04-15T13:14:58Z</time></trkpt><trkpt lat="49.09829926756386" lon="4.928273178229383"><ele>199.0</ele><time>2026-04-15T13:15:00Z</time></trkpt><trkpt lat="49.098350605114526" lon="4.928396957848654"><ele>199.0</ele><time>2026-04-15T13:15:02Z</time></trkpt><trkpt lat="49.098403324695575" lon="4.928521717842133"><ele>199.0</ele><time>2026-04-15T13:15:04Z</time></trkpt><trkpt lat="49.0984517689042" lon="4.928649377584302"><ele>199.0</ele><time>2026-04-15T13:15:06Z</time></trkpt><trkpt lat="49.09850837684274" lon="4.928781599906901"><ele>199.0</ele><time>2026-04-15T13:15:08Z</time></trkpt><trkpt lat="49.098562722870724" lon="4.928909786263769"><ele>199.0</ele><time>2026-04-15T13:15:10Z</time></trkpt><trkpt lat="49.0986187903789" lon="4.929041026826671"><ele>199.0</ele><time>2026-04-15T13:15:12Z</time></trkpt><trkpt lat="49.098673842895074" lon="4.929175917558627"><ele>199.0</ele><time>2026-04-15T13:15:14Z</time></trkpt><trkpt lat="49.09872960358707" lon="4.92932137233027"><ele>199.0</ele><time>2026-04-15T13:15:16Z</time></trkpt><trkpt lat="49.09878540682502" lon="4.9294618045338225"><ele>199.0</ele><time>2026-04-15T13:15:18Z</time></trkpt><trkpt lat="49.098831349737885" lon="4.929602523427783"><ele>198.75</ele><time>2026-04-15T13:15:20Z</time></trkpt><trkpt lat="49.098877381675095" lon="4.929751052615507"><ele>198.5</ele><time>2026-04-15T13:15:22Z</time></trkpt><trkpt lat="49.098926995451414" lon="4.929909937660494"><ele>198.25</ele><time>2026-04-15T13:15:24Z</time></trkpt><trkpt lat="49.09897414906921" lon="4.930073238367289"><ele>198.0</ele><time>2026-04-15T13:15:26Z</time></trkpt><trkpt lat="49.09901965592089" lon="4.930252352408321"><ele>197.83333333333334</ele><time>2026-04-15T13:15:28Z</time></trkpt><trkpt lat="49.099065467642205" lon="4.930439301417957"><ele>197.66666666666669</ele><time>2026-04-15T13:15:30Z</time></trkpt><trkpt lat="49.099085497636" lon="4.930532633051555"><ele>197.5</ele><time>2026-04-15T13:15:31Z</time></trkpt><trkpt lat="49.09910999633643" lon="4.930629807309683"><ele>197.33333333333334</ele><time>2026-04-15T13:15:32Z</time></trkpt><trkpt lat="49.099135293267736" lon="4.930727375628587"><ele>197.16666666666669</ele><time>2026-04-15T13:15:33Z</time></trkpt><trkpt lat="49.09915570845041" lon="4.930825698480524"><ele>197.0</ele><time>2026-04-15T13:15:34Z</time></trkpt><trkpt lat="49.09917779342009" lon="4.930924314765359"><ele>197.0</ele><time>2026-04-15T13:15:35Z</time></trkpt><trkpt lat="49.09920093981415" lon="4.931018994277368"><ele>197.0</ele><time>2026-04-15T13:15:36Z</time></trkpt><trkpt lat="49.099224997645685" lon="4.931118641446957"><ele>197.0</ele><time>2026-04-15T13:15:37Z</time></trkpt><trkpt lat="49.09925096132608" lon="4.9312184645492065"><ele>197.0</ele><time>2026-04-15T13:15:38Z</time></trkpt><trkpt lat="49.09927293348157" lon="4.931315151220353"><ele>197.0</ele><time>2026-04-15T13:15:39Z</time></trkpt><trkpt lat="49.099293496602456" lon="4.931410502876648"><ele>197.0</ele><time>2026-04-15T13:15:40Z</time></trkpt><trkpt lat="49.099316339875934" lon="4.931507378417495"><ele>197.0</ele><time>2026-04-15T13:15:41Z</time></trkpt><trkpt lat="49.099339479696006" lon="4.93160240377531"><ele>197.0</ele><time>2026-04-15T13:15:42Z</time></trkpt><trkpt lat="49.099364129446485" lon="4.931698362366071"><ele>197.0</ele><time>2026-04-15T13:15:43Z</time></trkpt><trkpt lat="49.099386525213326" lon="4.9317935927617125"><ele>197.0</ele><time>2026-04-15T13:15:44Z</time></trkpt><trkpt lat="49.09941072826698" lon="4.931888266916788"><ele>197.0</ele><time>2026-04-15T13:15:45Z</time></trkpt><trkpt lat="49.09943608602132" lon="4.931981169830939"><ele>197.0</ele><time>2026-04-15T13:15:46Z</time></trkpt><trkpt lat="49.09946078643001" lon="4.932073226896139"><ele>197.0</ele><time>2026-04-15T13:15:47Z</time></trkpt><trkpt lat="49.09948238858864" lon="4.932166698096459"><ele>197.0</ele><time>2026-04-15T13:15:48Z</time></trkpt><trkpt lat="49.0995051642318" lon="4.932260622142024"><ele>196.83333333333334</ele><time>2026-04-15T13:15:49Z</time></trkpt><trkpt lat="49.09952620670168" lon="4.932351387939447"><ele>196.66666666666669</ele><time>2026-04-15T13:15:50Z</time></trkpt><trkpt lat="49.099567057568194" lon="4.9325271439107"><ele>196.5</ele><time>2026-04-15T13:15:52Z</time></trkpt><trkpt lat="49.09959021425028" lon="4.9326212529866025"><ele>196.33333333333331</ele><time>2026-04-15T13:15:53Z</time></trkpt><trkpt lat="49.09961156722461" lon="4.93271251627103"><ele>196.16666666666666</ele><time>2026-04-15T13:15:54Z</time></trkpt><trkpt lat="49.09965537538377" lon="4.932895394972336"><ele>196.0</ele><time>2026-04-15T13:15:56Z</time></trkpt><trkpt lat="49.09969827628656" lon="4.933074970579433"><ele>195.8</ele><time>2026-04-15T13:15:58Z</time></trkpt><trkpt lat="49.099720456751534" lon="4.933166446859303"><ele>195.60000000000002</ele><time>2026-04-15T13:15:59Z</time></trkpt><trkpt lat="49.099742477075274" lon="4.933257139606281"><ele>195.4</ele><time>2026-04-15T13:16:00Z</time></trkpt><trkpt lat="49.099791167777575" lon="4.933434122139713"><ele>195.2</ele><time>2026-04-15T13:16:02Z</time></trkpt><trkpt lat="49.09983368078448" lon="4.93360382707665"><ele>195.0</ele><time>2026-04-15T13:16:04Z</time></trkpt><trkpt lat="49.099877959922004" lon="4.933779414954324"><ele>196.0</ele><time>2026-04-15T13:16:06Z</time></trkpt><trkpt lat="49.09992122036326" lon="4.933946926198415"><ele>197.0</ele><time>2026-04-15T13:16:08Z</time></trkpt><trkpt lat="49.099959998994834" lon="4.934118543475569"><ele>198.0</ele><time>2026-04-15T13:16:10Z</time></trkpt><trkpt lat="49.10000035007575" lon="4.934296106952786"><ele>199.0</ele><time>2026-04-15T13:16:12Z</time></trkpt><trkpt lat="49.10003980809109" lon="4.934469837703973"><ele>199.0</ele><time>2026-04-15T13:16:14Z</time></trkpt><trkpt lat="49.100085530529014" lon="4.934644609835307"><ele>199.0</ele><time>2026-04-15T13:16:16Z</time></trkpt><trkpt lat="49.1001349494626" lon="4.934818003793006"><ele>199.0</ele><time>2026-04-15T13:16:18Z</time></trkpt><trkpt lat="49.10017485396795" lon="4.934988378168489"><ele>199.0</ele><time>2026-04-15T13:16:20Z</time></trkpt><trkpt lat="49.10021278953591" lon="4.935160822924779"><ele>199.25</ele><time>2026-04-15T13:16:22Z</time></trkpt><trkpt lat="49.10025343617545" lon="4.93533842931967"><ele>199.5</ele><time>2026-04-15T13:16:24Z</time></trkpt><trkpt lat="49.10029594825112" lon="4.935522547462003"><ele>199.75</ele><time>2026-04-15T13:16:26Z</time></trkpt><trkpt lat="49.10034350651145" lon="4.935690373526858"><ele>200.0</ele><time>2026-04-15T13:16:28Z</time></trkpt><trkpt lat="49.10038712617671" lon="4.935863788999134"><ele>200.25</ele><time>2026-04-15T13:16:30Z</time></trkpt><trkpt lat="49.10042431994598" lon="4.936044641318934"><ele>200.5</ele><time>2026-04-15T13:16:32Z</time></trkpt><trkpt lat="49.10046784790178" lon="4.936217101603889"><ele>200.75</ele><time>2026-04-15T13:16:34Z</time></trkpt><trkpt lat="49.10050709296832" lon="4.93638563773598"><ele>201.0</ele><time>2026-04-15T13:16:36Z</time></trkpt><trkpt lat="49.10054798514112" lon="4.93655130594376"><ele>201.0</ele><time>2026-04-15T13:16:38Z</time></trkpt><trkpt lat="49.100588130884674" lon="4.936712977376452"><ele>201.0</ele><time>2026-04-15T13:16:40Z</time></trkpt><trkpt lat="49.10062978921359" lon="4.936867261639381"><ele>201.0</ele><time>2026-04-15T13:16:42Z</time></trkpt><trkpt lat="49.1006706335576" lon="4.937033799491778"><ele>201.0</ele><time>2026-04-15T13:16:44Z</time></trkpt><trkpt lat="49.10070944375219" lon="4.937207171623177"><ele>201.4</ele><time>2026-04-15T13:16:46Z</time></trkpt><trkpt lat="49.1007347816541" lon="4.937298281061493"><ele>201.8</ele><time>2026-04-15T13:16:47Z</time></trkpt><trkpt lat="49.100785830132644" lon="4.937475104322948"><ele>202.20000000000002</ele><time>2026-04-15T13:16:49Z</time></trkpt><trkpt lat="49.10082804807724" lon="4.937639011535624"><ele>202.60000000000002</ele><time>2026-04-15T13:16:51Z</time></trkpt><trkpt lat="49.100890268200814" lon="4.937748472422891"><ele>203.0</ele><time>2026-04-15T13:16:53Z</time></trkpt><trkpt lat="49.10100012667489" lon="4.937754730178193"><ele>203.4</ele><time>2026-04-15T13:16:55Z</time></trkpt><trkpt lat="49.10109195215112" lon="4.937727002088635"><ele>203.8</ele><time>2026-04-15T13:16:57Z</time></trkpt><trkpt lat="49.1011907223229" lon="4.93771031167479"><ele>204.2</ele><time>2026-04-15T13:16:59Z</time></trkpt><trkpt lat="49.10129385853831" lon="4.937705497878584"><ele>204.6</ele><time>2026-04-15T13:17:01Z</time></trkpt><trkpt lat="49.101400320139724" lon="4.9376918755053465"><ele>205.0</ele><time>2026-04-15T13:17:03Z</time></trkpt><trkpt lat="49.101508542841266" lon="4.93766514355627"><ele>204.6</ele><time>2026-04-15T13:17:05Z</time></trkpt><trkpt lat="49.101612931704395" lon="4.937656957384973"><ele>204.2</ele><time>2026-04-15T13:17:07Z</time></trkpt><trkpt lat="49.10171298612149" lon="4.937648436818186"><ele>203.8</ele><time>2026-04-15T13:17:09Z</time></trkpt><trkpt lat="49.10180659910003" lon="4.937625325885481"><ele>203.4</ele><time>2026-04-15T13:17:11Z</time></trkpt><trkpt lat="49.10189710209072" lon="4.937606821979423"><ele>203.0</ele><time>2026-04-15T13:17:13Z</time></trkpt><trkpt lat="49.101987045472995" lon="4.937589421805368"><ele>203.00000000000003</ele><time>2026-04-15T13:17:15Z</time></trkpt><trkpt lat="49.102075984000116" lon="4.9375682061664605"><ele>203.0</ele><time>2026-04-15T13:17:17Z</time></trkpt><trkpt lat="49.10216565108783" lon="4.937547927257454"><ele>203.0</ele><time>2026-04-15T13:17:19Z</time></trkpt><trkpt lat="49.102256054641046" lon="4.9375259887393375"><ele>203.0</ele><time>2026-04-15T13:17:21Z</time></trkpt><trkpt lat="49.102343302042435" lon="4.937512109827379"><ele>203.00000000000003</ele><time>2026-04-15T13:17:23Z</time></trkpt><trkpt lat="49.10242957587306" lon="4.937488792802647"><ele>203.0</ele><time>2026-04-15T13:17:25Z</time></trkpt><trkpt lat="49.10251396895414" lon="4.937475227717802"><ele>203.00000000000003</ele><time>2026-04-15T13:17:27Z</time></trkpt><trkpt lat="49.10260369394015" lon="4.93747803767125"><ele>203.0</ele><time>2026-04-15T13:17:29Z</time></trkpt><trkpt lat="49.102690534746316" lon="4.937490594071497"><ele>203.0</ele><time>2026-04-15T13:17:31Z</time></trkpt><trkpt lat="49.1027637930605" lon="4.937504742853795"><ele>203.0</ele><time>2026-04-15T13:17:33Z</time></trkpt><trkpt lat="49.10283934093883" lon="4.937530009678758"><ele>203.00000000000003</ele><time>2026-04-15T13:17:35Z</time></trkpt><trkpt lat="49.102921629637116" lon="4.937553910595858"><ele>203.0</ele><time>2026-04-15T13:17:37Z</time></trkpt><trkpt lat="49.10299611721804" lon="4.93758486064078"><ele>203.0</ele><time>2026-04-15T13:17:39Z</time></trkpt><trkpt lat="49.10307735126764" lon="4.937620252443601"><ele>203.0</ele><time>2026-04-15T13:17:41Z</time></trkpt><trkpt lat="49.103168123442096" lon="4.937645534917132"><ele>203.0</ele><time>2026-04-15T13:17:43Z</time></trkpt><trkpt lat="49.10325399188812" lon="4.937674322847095"><ele>203.0</ele><time>2026-04-15T13:17:45Z</time></trkpt><trkpt lat="49.103346429445786" lon="4.937697223090894"><ele>203.0</ele><time>2026-04-15T13:17:47Z</time></trkpt><trkpt lat="49.10344455280921" lon="4.937712902949415"><ele>203.00000000000003</ele><time>2026-04-15T13:17:49Z</time></trkpt><trkpt lat="49.10353568208686" lon="4.937708728818738"><ele>203.0</ele><time>2026-04-15T13:17:51Z</time></trkpt><trkpt lat="49.10362678625619" lon="4.937697953252386"><ele>203.0</ele><time>2026-04-15T13:17:53Z</time></trkpt><trkpt lat="49.103716662019075" lon="4.9376761931640605"><ele>203.0</ele><time>2026-04-15T13:17:55Z</time></trkpt><trkpt lat="49.103798794398976" lon="4.937644276438367"><ele>203.00000000000003</ele><time>2026-04-15T13:17:57Z</time></trkpt><trkpt lat="49.103881812820966" lon="4.937599219987172"><ele>203.0</ele><time>2026-04-15T13:17:59Z</time></trkpt><trkpt lat="49.10396114725244" lon="4.937559285114234"><ele>202.83333333333334</ele><time>2026-04-15T13:18:01Z</time></trkpt><trkpt lat="49.10403576175494" lon="4.937510420597016"><ele>202.66666666666669</ele><time>2026-04-15T13:18:03Z</time></trkpt><trkpt lat="49.10410843006356" lon="4.937463824737202"><ele>202.5</ele><time>2026-04-15T13:18:05Z</time></trkpt><trkpt lat="49.10417663405795" lon="4.937412966050969"><ele>202.33333333333331</ele><time>2026-04-15T13:18:07Z</time></trkpt><trkpt lat="49.104238573024126" lon="4.937358461503222"><ele>202.16666666666666</ele><time>2026-04-15T13:18:09Z</time></trkpt><trkpt lat="49.104314278523816" lon="4.937297648592156"><ele>202.0</ele><time>2026-04-15T13:18:11Z</time></trkpt><trkpt lat="49.104392753640965" lon="4.937229500466173"><ele>201.83333333333331</ele><time>2026-04-15T13:18:13Z</time></trkpt><trkpt lat="49.104470645941326" lon="4.937158388221313"><ele>201.66666666666666</ele><time>2026-04-15T13:18:15Z</time></trkpt><trkpt lat="49.104540581467646" lon="4.937072201060624"><ele>201.5</ele><time>2026-04-15T13:18:17Z</time></trkpt><trkpt lat="49.10460754907317" lon="4.936987837840667"><ele>201.33333333333331</ele><time>2026-04-15T13:18:19Z</time></trkpt><trkpt lat="49.1046711564453" lon="4.936898016782495"><ele>201.16666666666666</ele><time>2026-04-15T13:18:21Z</time></trkpt><trkpt lat="49.10472861025312" lon="4.9368035443853815"><ele>201.0</ele><time>2026-04-15T13:18:23Z</time></trkpt><trkpt lat="49.104788141824955" lon="4.9366949822796915"><ele>201.20000000000002</ele><time>2026-04-15T13:18:25Z</time></trkpt><trkpt lat="49.10483237191012" lon="4.93656832354059"><ele>201.4</ele><time>2026-04-15T13:18:27Z</time></trkpt><trkpt lat="49.104875794381904" lon="4.9364247186053065"><ele>201.6</ele><time>2026-04-15T13:18:29Z</time></trkpt><trkpt lat="49.10490801303074" lon="4.936274176678912"><ele>201.8</ele><time>2026-04-15T13:18:31Z</time></trkpt><trkpt lat="49.10493599016895" lon="4.93610639543821"><ele>202.0</ele><time>2026-04-15T13:18:33Z</time></trkpt><trkpt lat="49.10496037452473" lon="4.935931352773806"><ele>201.75</ele><time>2026-04-15T13:18:35Z</time></trkpt><trkpt lat="49.10498268545976" lon="4.935759486114658"><ele>201.5</ele><time>2026-04-15T13:18:37Z</time></trkpt><trkpt lat="49.10500514963695" lon="4.935585191658796"><ele>201.25</ele><time>2026-04-15T13:18:39Z</time></trkpt><trkpt lat="49.10503421160892" lon="4.935413189945617"><ele>201.0</ele><time>2026-04-15T13:18:41Z</time></trkpt><trkpt lat="49.10507469386298" lon="4.935244896146361"><ele>201.0</ele><time>2026-04-15T13:18:43Z</time></trkpt><trkpt lat="49.10511808288067" lon="4.935071359549245"><ele>201.0</ele><time>2026-04-15T13:18:45Z</time></trkpt><trkpt lat="49.105163757954145" lon="4.93490573472414"><ele>201.0</ele><time>2026-04-15T13:18:47Z</time></trkpt><trkpt lat="49.10520666758843" lon="4.934737868598381"><ele>201.0</ele><time>2026-04-15T13:18:49Z</time></trkpt><trkpt lat="49.10526246057854" lon="4.934577441017886"><ele>200.75</ele><time>2026-04-15T13:18:51Z</time></trkpt><trkpt lat="49.10532555611559" lon="4.934421544006027"><ele>200.5</ele><time>2026-04-15T13:18:53Z</time></trkpt><trkpt lat="49.10538442281586" lon="4.934266463930535"><ele>200.25</ele><time>2026-04-15T13:18:55Z</time></trkpt><trkpt lat="49.105435670577755" lon="4.9341095861624815"><ele>200.0</ele><time>2026-04-15T13:18:57Z</time></trkpt><trkpt lat="49.10548328051085" lon="4.9339485559331"><ele>200.0</ele><time>2026-04-15T13:18:59Z</time></trkpt><trkpt lat="49.10552436153892" lon="4.933778341918298"><ele>200.0</ele><time>2026-04-15T13:19:01Z</time></trkpt><trkpt lat="49.105560257803845" lon="4.933614714523384"><ele>200.0</ele><time>2026-04-15T13:19:03Z</time></trkpt><trkpt lat="49.10558453588512" lon="4.933445218362049"><ele>200.0</ele><time>2026-04-15T13:19:05Z</time></trkpt><trkpt lat="49.10559377580932" lon="4.933266168457767"><ele>200.0</ele><time>2026-04-15T13:19:07Z</time></trkpt><trkpt lat="49.10560483007026" lon="4.933095327418428"><ele>200.0</ele><time>2026-04-15T13:19:09Z</time></trkpt><trkpt lat="49.10561525855886" lon="4.93292697630766"><ele>200.0</ele><time>2026-04-15T13:19:11Z</time></trkpt><trkpt lat="49.105622062636236" lon="4.932759755900096"><ele>200.0</ele><time>2026-04-15T13:19:13Z</time></trkpt><trkpt lat="49.10562852747495" lon="4.932614934588479"><ele>200.0</ele><time>2026-04-15T13:19:15Z</time></trkpt><trkpt lat="49.105633920978036" lon="4.932484682528237"><ele>200.00000000000003</ele><time>2026-04-15T13:19:17Z</time></trkpt><trkpt lat="49.105637226697596" lon="4.932378309522383"><ele>200.0</ele><time>2026-04-15T13:19:19Z</time></trkpt><trkpt lat="49.10564689123836" lon="4.932244767936123"><ele>200.0</ele><time>2026-04-15T13:19:22Z</time></trkpt><trkpt lat="49.10565116986298" lon="4.932120838191758"><ele>200.0</ele><time>2026-04-15T13:19:25Z</time></trkpt><trkpt lat="49.10565227577722" lon="4.9320139692311304"><ele>200.00000000000003</ele><time>2026-04-15T13:19:28Z</time></trkpt><trkpt lat="49.10565775245764" lon="4.93191146965803"><ele>200.0</ele><time>2026-04-15T13:19:31Z</time></trkpt><trkpt lat="49.10566837305636" lon="4.931781636824235"><ele>200.14285714285717</ele><time>2026-04-15T13:19:35Z</time></trkpt><trkpt lat="49.10567377615364" lon="4.931682741179219"><ele>200.28571428571428</ele><time>2026-04-15T13:19:38Z</time></trkpt><trkpt lat="49.1056748687945" lon="4.931578343880992"><ele>200.42857142857144</ele><time>2026-04-15T13:19:41Z</time></trkpt><trkpt lat="49.105683684397825" lon="4.931467290950795"><ele>200.57142857142858</ele><time>2026-04-15T13:19:44Z</time></trkpt><trkpt lat="49.10569591456914" lon="4.931356978281958"><ele>200.71428571428572</ele><time>2026-04-15T13:19:47Z</time></trkpt><trkpt lat="49.10569707123775" lon="4.931260119783498"><ele>200.85714285714286</ele><time>2026-04-15T13:19:50Z</time></trkpt><trkpt lat="49.10570040346892" lon="4.93115958064438"><ele>201.0</ele><time>2026-04-15T13:19:53Z</time></trkpt><trkpt lat="49.105711553640035" lon="4.931039655958971"><ele>201.0</ele><time>2026-04-15T13:19:57Z</time></trkpt><trkpt lat="49.10572322871073" lon="4.930937463169303"><ele>201.0</ele><time>2026-04-15T13:20:01Z</time></trkpt><trkpt lat="49.10573684116063" lon="4.930823333199646"><ele>201.0</ele><time>2026-04-15T13:20:05Z</time></trkpt><trkpt lat="49.10575520292857" lon="4.930706076119314"><ele>201.0</ele><time>2026-04-15T13:20:09Z</time></trkpt><trkpt lat="49.10577726762484" lon="4.930611064777561"><ele>201.0</ele><time>2026-04-15T13:20:12Z</time></trkpt><trkpt lat="49.105807071495846" lon="4.930515563908574"><ele>201.0</ele><time>2026-04-15T13:20:15Z</time></trkpt><trkpt lat="49.10583341012185" lon="4.930420466846552"><ele>201.0</ele><time>2026-04-15T13:20:18Z</time></trkpt><trkpt lat="49.10587245931818" lon="4.930324683441049"><ele>201.66666666666666</ele><time>2026-04-15T13:20:21Z</time></trkpt><trkpt lat="49.105908912257334" lon="4.930221468987164"><ele>202.33333333333331</ele><time>2026-04-15T13:20:24Z</time></trkpt><trkpt lat="49.105950628442805" lon="4.930119942590853"><ele>203.0</ele><time>2026-04-15T13:20:27Z</time></trkpt><trkpt lat="49.105987815416384" lon="4.930012504518478"><ele>203.66666666666666</ele><time>2026-04-15T13:20:30Z</time></trkpt><trkpt lat="49.106025181596834" lon="4.929911873687049"><ele>204.33333333333331</ele><time>2026-04-15T13:20:33Z</time></trkpt><trkpt lat="49.10606482155499" lon="4.9298002117961905"><ele>205.0</ele><time>2026-04-15T13:20:36Z</time></trkpt><trkpt lat="49.10611217026653" lon="4.929680495023654"><ele>205.16666666666666</ele><time>2026-04-15T13:20:39Z</time></trkpt><trkpt lat="49.10615615900307" lon="4.929552141513305"><ele>205.33333333333331</ele><time>2026-04-15T13:20:42Z</time></trkpt><trkpt lat="49.106189607006364" lon="4.929459328588866"><ele>205.5</ele><time>2026-04-15T13:20:44Z</time></trkpt><trkpt lat="49.10622256333995" lon="4.929355877220476"><ele>205.66666666666669</ele><time>2026-04-15T13:20:46Z</time></trkpt><trkpt lat="49.106256126654976" lon="4.929257730629824"><ele>205.83333333333334</ele><time>2026-04-15T13:20:48Z</time></trkpt><trkpt lat="49.106289307521" lon="4.929145203570342"><ele>206.0</ele><time>2026-04-15T13:20:50Z</time></trkpt><trkpt lat="49.10631835134114" lon="4.929033525413644"><ele>206.00000000000003</ele><time>2026-04-15T13:20:52Z</time></trkpt><trkpt lat="49.10635000966174" lon="4.92891880339209"><ele>206.0</ele><time>2026-04-15T13:20:54Z</time></trkpt><trkpt lat="49.106380727836004" lon="4.928803702752791"><ele>206.0</ele><time>2026-04-15T13:20:56Z</time></trkpt><trkpt lat="49.10641297605071" lon="4.928688884469597"><ele>206.0</ele><time>2026-04-15T13:20:58Z</time></trkpt><trkpt lat="49.106440583871944" lon="4.928570652336887"><ele>206.00000000000003</ele><time>2026-04-15T13:21:00Z</time></trkpt><trkpt lat="49.10646830055542" lon="4.928456600521006"><ele>206.0</ele><time>2026-04-15T13:21:02Z</time></trkpt><trkpt lat="49.106499238843796" lon="4.928335804382842"><ele>205.8</ele><time>2026-04-15T13:21:04Z</time></trkpt><trkpt lat="49.10652885778747" lon="4.9282128605474185"><ele>205.60000000000002</ele><time>2026-04-15T13:21:06Z</time></trkpt><trkpt lat="49.10656303741655" lon="4.928080772238235"><ele>205.4</ele><time>2026-04-15T13:21:08Z</time></trkpt><trkpt lat="49.10659816923187" lon="4.927943855194307"><ele>205.2</ele><time>2026-04-15T13:21:10Z</time></trkpt><trkpt lat="49.10663398110244" lon="4.92779980527482"><ele>205.0</ele><time>2026-04-15T13:21:12Z</time></trkpt><trkpt lat="49.106669445137975" lon="4.927649486521581"><ele>205.6</ele><time>2026-04-15T13:21:14Z</time></trkpt><trkpt lat="49.106711445359885" lon="4.927491589109898"><ele>206.2</ele><time>2026-04-15T13:21:16Z</time></trkpt><trkpt lat="49.10675902749428" lon="4.927325889083264"><ele>206.8</ele><time>2026-04-15T13:21:18Z</time></trkpt><trkpt lat="49.10681148939308" lon="4.927156556435256"><ele>207.4</ele><time>2026-04-15T13:21:20Z</time></trkpt><trkpt lat="49.106841761612706" lon="4.9270685481424845"><ele>208.0</ele><time>2026-04-15T13:21:21Z</time></trkpt><trkpt lat="49.10687497104574" lon="4.926984647638497"><ele>208.0</ele><time>2026-04-15T13:21:22Z</time></trkpt><trkpt lat="49.10691620297842" lon="4.926892844397216"><ele>208.0</ele><time>2026-04-15T13:21:23Z</time></trkpt><trkpt lat="49.106957623246785" lon="4.926805274876385"><ele>208.0</ele><time>2026-04-15T13:21:24Z</time></trkpt><trkpt lat="49.10699992868284" lon="4.926720192963054"><ele>208.0</ele><time>2026-04-15T13:21:25Z</time></trkpt><trkpt lat="49.107048267460065" lon="4.926624387751064"><ele>208.0</ele><time>2026-04-15T13:21:26Z</time></trkpt><trkpt lat="49.10709226035311" lon="4.92653428829969"><ele>208.0</ele><time>2026-04-15T13:21:27Z</time></trkpt><trkpt lat="49.10713542452873" lon="4.926438628091151"><ele>208.0</ele><time>2026-04-15T13:21:28Z</time></trkpt><trkpt lat="49.10717762023391" lon="4.926335543757117"><ele>207.33333333333331</ele><time>2026-04-15T13:21:29Z</time></trkpt><trkpt lat="49.107216830385866" lon="4.926227783724695"><ele>206.66666666666666</ele><time>2026-04-15T13:21:30Z</time></trkpt><trkpt lat="49.107243122993665" lon="4.926109240287515"><ele>206.0</ele><time>2026-04-15T13:21:31Z</time></trkpt><trkpt lat="49.10726103370473" lon="4.925983671493697"><ele>205.33333333333331</ele><time>2026-04-15T13:21:32Z</time></trkpt><trkpt lat="49.10726917171105" lon="4.925857222774974"><ele>204.66666666666666</ele><time>2026-04-15T13:21:33Z</time></trkpt><trkpt lat="49.10727784685484" lon="4.925726398000323"><ele>204.0</ele><time>2026-04-15T13:21:34Z</time></trkpt><trkpt lat="49.107287341929116" lon="4.92558758008652"><ele>203.6</ele><time>2026-04-15T13:21:35Z</time></trkpt><trkpt lat="49.107298280204084" lon="4.925447165523204"><ele>203.2</ele><time>2026-04-15T13:21:36Z</time></trkpt><trkpt lat="49.10731032366841" lon="4.9253063027312765"><ele>202.79999999999998</ele><time>2026-04-15T13:21:37Z</time></trkpt><trkpt lat="49.10732667915886" lon="4.925159875174755"><ele>202.39999999999998</ele><time>2026-04-15T13:21:38Z</time></trkpt><trkpt lat="49.107351195669054" lon="4.925016857484695"><ele>202.0</ele><time>2026-04-15T13:21:39Z</time></trkpt><trkpt lat="49.107385118303156" lon="4.924868414980472"><ele>201.39999999999998</ele><time>2026-04-15T13:21:40Z</time></trkpt><trkpt lat="49.10743142406986" lon="4.924727353384446"><ele>200.79999999999998</ele><time>2026-04-15T13:21:41Z</time></trkpt><trkpt lat="49.107483001781105" lon="4.924599075942114"><ele>200.2</ele><time>2026-04-15T13:21:42Z</time></trkpt><trkpt lat="49.107533675128664" lon="4.924462357798347"><ele>199.6</ele><time>2026-04-15T13:21:43Z</time></trkpt><trkpt lat="49.10758496356555" lon="4.924324155694677"><ele>199.0</ele><time>2026-04-15T13:21:44Z</time></trkpt><trkpt lat="49.1076339982684" lon="4.9241906334650105"><ele>198.39999999999998</ele><time>2026-04-15T13:21:45Z</time></trkpt><trkpt lat="49.107683083711485" lon="4.924053456048086"><ele>197.8</ele><time>2026-04-15T13:21:46Z</time></trkpt><trkpt lat="49.10773313479904" lon="4.923910766181665"><ele>197.2</ele><time>2026-04-15T13:21:47Z</time></trkpt><trkpt lat="49.107779105900335" lon="4.923776348452318"><ele>196.60000000000002</ele><time>2026-04-15T13:21:48Z</time></trkpt><trkpt lat="49.107825528161" lon="4.923635248145971"><ele>196.0</ele><time>2026-04-15T13:21:49Z</time></trkpt><trkpt lat="49.10787420976193" lon="4.923503550768893"><ele>195.60000000000002</ele><time>2026-04-15T13:21:50Z</time></trkpt><trkpt lat="49.10792350052885" lon="4.923365499189089"><ele>195.2</ele><time>2026-04-15T13:21:51Z</time></trkpt><trkpt lat="49.10796937514324" lon="4.9232336097497384"><ele>194.8</ele><time>2026-04-15T13:21:52Z</time></trkpt><trkpt lat="49.10801360523998" lon="4.923100042349393"><ele>194.39999999999998</ele><time>2026-04-15T13:21:53Z</time></trkpt><trkpt lat="49.10805816980108" lon="4.92296904645813"><ele>194.0</ele><time>2026-04-15T13:21:54Z</time></trkpt><trkpt lat="49.10810021363119" lon="4.922841397124442"><ele>194.00000000000003</ele><time>2026-04-15T13:21:55Z</time></trkpt><trkpt lat="49.10813700365963" lon="4.922710460298011"><ele>194.0</ele><time>2026-04-15T13:21:56Z</time></trkpt><trkpt lat="49.108166165322054" lon="4.922580009134749"><ele>194.0</ele><time>2026-04-15T13:21:57Z</time></trkpt><trkpt lat="49.1081892259197" lon="4.922452875463146"><ele>194.0</ele><time>2026-04-15T13:21:58Z</time></trkpt><trkpt lat="49.10820936992801" lon="4.92232432017878"><ele>194.00000000000003</ele><time>2026-04-15T13:21:59Z</time></trkpt><trkpt lat="49.10822133156303" lon="4.9222002629290165"><ele>194.0</ele><time>2026-04-15T13:22:00Z</time></trkpt><trkpt lat="49.108230225608736" lon="4.922075867956356"><ele>194.0</ele><time>2026-04-15T13:22:01Z</time></trkpt><trkpt lat="49.108239305138" lon="4.921958294339182"><ele>194.0</ele><time>2026-04-15T13:22:02Z</time></trkpt><trkpt lat="49.10825056029994" lon="4.9218443602928845"><ele>194.0</ele><time>2026-04-15T13:22:03Z</time></trkpt><trkpt lat="49.10825968996302" lon="4.921734260401946"><ele>194.0</ele><time>2026-04-15T13:22:04Z</time></trkpt><trkpt lat="49.10826978207215" lon="4.9216271659584265"><ele>194.0</ele><time>2026-04-15T13:22:05Z</time></trkpt><trkpt lat="49.108278903551636" lon="4.921520357955142"><ele>194.0</ele><time>2026-04-15T13:22:06Z</time></trkpt><trkpt lat="49.10828366087288" lon="4.921418546586417"><ele>194.0</ele><time>2026-04-15T13:22:07Z</time></trkpt><trkpt lat="49.10828926266996" lon="4.921315107272315"><ele>193.79999999999998</ele><time>2026-04-15T13:22:08Z</time></trkpt><trkpt lat="49.10829482241713" lon="4.921215432214489"><ele>193.6</ele><time>2026-04-15T13:22:09Z</time></trkpt><trkpt lat="49.10830016256391" lon="4.92103307381269"><ele>193.4</ele><time>2026-04-15T13:22:11Z</time></trkpt><trkpt lat="49.10830368265033" lon="4.920847309174439"><ele>193.2</ele><time>2026-04-15T13:22:13Z</time></trkpt><trkpt lat="49.10830269086369" lon="4.920750080828375"><ele>193.0</ele><time>2026-04-15T13:22:14Z</time></trkpt><trkpt lat="49.10830516808014" lon="4.920573625252622"><ele>193.0</ele><time>2026-04-15T13:22:16Z</time></trkpt><trkpt lat="49.108303243937684" lon="4.9203921841620275"><ele>193.0</ele><time>2026-04-15T13:22:18Z</time></trkpt><trkpt lat="49.108304099547546" lon="4.920209085396797"><ele>193.0</ele><time>2026-04-15T13:22:20Z</time></trkpt><trkpt lat="49.108297571071965" lon="4.9200277054945545"><ele>193.0</ele><time>2026-04-15T13:22:22Z</time></trkpt><trkpt lat="49.10828816227635" lon="4.919849188330735"><ele>193.0</ele><time>2026-04-15T13:22:24Z</time></trkpt><trkpt lat="49.10827752013115" lon="4.919671397380633"><ele>193.0</ele><time>2026-04-15T13:22:26Z</time></trkpt><trkpt lat="49.10825801614605" lon="4.9194840580299575"><ele>193.0</ele><time>2026-04-15T13:22:28Z</time></trkpt><trkpt lat="49.10823857415748" lon="4.919297507882422"><ele>193.0</ele><time>2026-04-15T13:22:30Z</time></trkpt><trkpt lat="49.108223897949955" lon="4.919203895522512"><ele>193.0</ele><time>2026-04-15T13:22:31Z</time></trkpt><trkpt lat="49.108191682871954" lon="4.919029879971454"><ele>192.4</ele><time>2026-04-15T13:22:33Z</time></trkpt><trkpt lat="49.10817504718603" lon="4.918936565822929"><ele>191.8</ele><time>2026-04-15T13:22:34Z</time></trkpt><trkpt lat="49.10814056248352" lon="4.918766325981739"><ele>191.2</ele><time>2026-04-15T13:22:36Z</time></trkpt><trkpt lat="49.108096912046044" lon="4.918607790511392"><ele>190.6</ele><time>2026-04-15T13:22:38Z</time></trkpt><trkpt lat="49.108057168549124" lon="4.918453592562895"><ele>190.0</ele><time>2026-04-15T13:22:40Z</time></trkpt><trkpt lat="49.10802033830572" lon="4.918297610223877"><ele>189.8</ele><time>2026-04-15T13:22:42Z</time></trkpt><trkpt lat="49.107975345585515" lon="4.918153195725499"><ele>189.6</ele><time>2026-04-15T13:22:44Z</time></trkpt><trkpt lat="49.10793493451317" lon="4.918002434699658"><ele>189.39999999999998</ele><time>2026-04-15T13:22:46Z</time></trkpt><trkpt lat="49.107896874160836" lon="4.917853529266897"><ele>189.2</ele><time>2026-04-15T13:22:48Z</time></trkpt><trkpt lat="49.1078518221749" lon="4.9177029886590296"><ele>189.0</ele><time>2026-04-15T13:22:50Z</time></trkpt><trkpt lat="49.107806231888894" lon="4.9175542006240525"><ele>188.79999999999998</ele><time>2026-04-15T13:22:52Z</time></trkpt><trkpt lat="49.107764739208235" lon="4.917401613501242"><ele>188.6</ele><time>2026-04-15T13:22:54Z</time></trkpt><trkpt lat="49.10772268656342" lon="4.917244272489866"><ele>188.4</ele><time>2026-04-15T13:22:56Z</time></trkpt><trkpt lat="49.10768162086417" lon="4.9170959470983515"><ele>188.2</ele><time>2026-04-15T13:22:58Z</time></trkpt><trkpt lat="49.10764338864142" lon="4.916941341044107"><ele>188.0</ele><time>2026-04-15T13:23:00Z</time></trkpt><trkpt lat="49.10760509137911" lon="4.916781228590974"><ele>187.8</ele><time>2026-04-15T13:23:02Z</time></trkpt><trkpt lat="49.1075673920584" lon="4.916625641278129"><ele>187.60000000000002</ele><time>2026-04-15T13:23:04Z</time></trkpt><trkpt lat="49.107532202904295" lon="4.916469696714864"><ele>187.39999999999998</ele><time>2026-04-15T13:23:06Z</time></trkpt><trkpt lat="49.107501382577794" lon="4.91630962459704"><ele>187.2</ele><time>2026-04-15T13:23:08Z</time></trkpt><trkpt lat="49.10746308756609" lon="4.916145949287109"><ele>187.0</ele><time>2026-04-15T13:23:10Z</time></trkpt><trkpt lat="49.10743271301005" lon="4.9159782239937595"><ele>185.5</ele><time>2026-04-15T13:23:12Z</time></trkpt><trkpt lat="49.10740214522433" lon="4.915810089913332"><ele>184.0</ele><time>2026-04-15T13:23:14Z</time></trkpt><trkpt lat="49.10737150051934" lon="4.915639722967851"><ele>182.5</ele><time>2026-04-15T13:23:16Z</time></trkpt><trkpt lat="49.10734142097027" lon="4.915461994199764"><ele>181.0</ele><time>2026-04-15T13:23:18Z</time></trkpt><trkpt lat="49.10731399208634" lon="4.915290201794903"><ele>181.0</ele><time>2026-04-15T13:23:20Z</time></trkpt><trkpt lat="49.10729367461248" lon="4.915108688511944"><ele>181.0</ele><time>2026-04-15T13:23:22Z</time></trkpt><trkpt lat="49.107271654218124" lon="4.914935608495874"><ele>181.0</ele><time>2026-04-15T13:23:24Z</time></trkpt><trkpt lat="49.107257115992525" lon="4.914761152018603"><ele>181.0</ele><time>2026-04-15T13:23:26Z</time></trkpt><trkpt lat="49.107242029781744" lon="4.914581161518979"><ele>181.0</ele><time>2026-04-15T13:23:28Z</time></trkpt><trkpt lat="49.1072328167584" lon="4.914403702795832"><ele>181.0</ele><time>2026-04-15T13:23:30Z</time></trkpt><trkpt lat="49.10722575491428" lon="4.914229698541397"><ele>181.0</ele><time>2026-04-15T13:23:32Z</time></trkpt><trkpt lat="49.10722364268003" lon="4.9140506063960165"><ele>181.0</ele><time>2026-04-15T13:23:34Z</time></trkpt><trkpt lat="49.10722991389609" lon="4.913876963347811"><ele>180.8</ele><time>2026-04-15T13:23:36Z</time></trkpt><trkpt lat="49.107236554199226" lon="4.913702265555836"><ele>180.60000000000002</ele><time>2026-04-15T13:23:38Z</time></trkpt><trkpt lat="49.10724570081938" lon="4.913532128278083"><ele>180.4</ele><time>2026-04-15T13:23:40Z</time></trkpt><trkpt lat="49.10726055762342" lon="4.91336620245431"><ele>180.2</ele><time>2026-04-15T13:23:42Z</time></trkpt><trkpt lat="49.10727644472913" lon="4.913199044990366"><ele>180.0</ele><time>2026-04-15T13:23:44Z</time></trkpt><trkpt lat="49.10729078858517" lon="4.913036947212621"><ele>179.8</ele><time>2026-04-15T13:23:46Z</time></trkpt><trkpt lat="49.10730681671163" lon="4.912881328283605"><ele>179.6</ele><time>2026-04-15T13:23:48Z</time></trkpt><trkpt lat="49.10731546870355" lon="4.912727257766934"><ele>179.39999999999998</ele><time>2026-04-15T13:23:50Z</time></trkpt><trkpt lat="49.10732539874421" lon="4.912577659574521"><ele>179.2</ele><time>2026-04-15T13:23:52Z</time></trkpt><trkpt lat="49.10733235362254" lon="4.9124341716249535"><ele>179.0</ele><time>2026-04-15T13:23:54Z</time></trkpt><trkpt lat="49.1073387101459" lon="4.912294513409186"><ele>179.33333333333331</ele><time>2026-04-15T13:23:56Z</time></trkpt><trkpt lat="49.107342473624584" lon="4.912169660106766"><ele>179.66666666666666</ele><time>2026-04-15T13:23:58Z</time></trkpt><trkpt lat="49.1073410792298" lon="4.912047770295964"><ele>180.0</ele><time>2026-04-15T13:24:00Z</time></trkpt><trkpt lat="49.10733391085466" lon="4.911929630223836"><ele>180.33333333333334</ele><time>2026-04-15T13:24:02Z</time></trkpt><trkpt lat="49.10732665657534" lon="4.911807770736681"><ele>180.66666666666669</ele><time>2026-04-15T13:24:04Z</time></trkpt><trkpt lat="49.1073194437347" lon="4.911692768781013"><ele>181.0</ele><time>2026-04-15T13:24:06Z</time></trkpt><trkpt lat="49.10731217919027" lon="4.911571358694858"><ele>181.0</ele><time>2026-04-15T13:24:08Z</time></trkpt><trkpt lat="49.10730744312548" lon="4.911442078709516"><ele>181.0</ele><time>2026-04-15T13:24:10Z</time></trkpt><trkpt lat="49.107300145058055" lon="4.9113101641129315"><ele>181.0</ele><time>2026-04-15T13:24:12Z</time></trkpt><trkpt lat="49.10729228810303" lon="4.911172895837611"><ele>181.0</ele><time>2026-04-15T13:24:14Z</time></trkpt><trkpt lat="49.10728415375072" lon="4.91102597033899"><ele>181.0</ele><time>2026-04-15T13:24:16Z</time></trkpt><trkpt lat="49.107279100306975" lon="4.910867993035536"><ele>180.60000000000002</ele><time>2026-04-15T13:24:18Z</time></trkpt><trkpt lat="49.1072708976606" lon="4.910709731231186"><ele>180.2</ele><time>2026-04-15T13:24:20Z</time></trkpt><trkpt lat="49.10725863208792" lon="4.91053678536904"><ele>179.8</ele><time>2026-04-15T13:24:22Z</time></trkpt><trkpt lat="49.107248847818084" lon="4.910365187865004"><ele>179.39999999999998</ele><time>2026-04-15T13:24:24Z</time></trkpt><trkpt lat="49.10724585499596" lon="4.910191465481586"><ele>179.0</ele><time>2026-04-15T13:24:26Z</time></trkpt><trkpt lat="49.107247408121346" lon="4.9100208681458835"><ele>179.0</ele><time>2026-04-15T13:24:28Z</time></trkpt><trkpt lat="49.107237162095906" lon="4.90985329172379"><ele>179.0</ele><time>2026-04-15T13:24:30Z</time></trkpt><trkpt lat="49.107232644680316" lon="4.909674366973768"><ele>179.0</ele><time>2026-04-15T13:24:32Z</time></trkpt><trkpt lat="49.10722877184705" lon="4.909500063294635"><ele>179.0</ele><time>2026-04-15T13:24:34Z</time></trkpt><trkpt lat="49.10722312921329" lon="4.90932119154066"><ele>178.75</ele><time>2026-04-15T13:24:36Z</time></trkpt><trkpt lat="49.107217200034455" lon="4.909147088571115"><ele>178.5</ele><time>2026-04-15T13:24:38Z</time></trkpt><trkpt lat="49.10720923223958" lon="4.908966557448116"><ele>178.25</ele><time>2026-04-15T13:24:40Z</time></trkpt><trkpt lat="49.10719986177592" lon="4.908790655867452"><ele>178.0</ele><time>2026-04-15T13:24:42Z</time></trkpt><trkpt lat="49.107191713516315" lon="4.908615645415353"><ele>178.0</ele><time>2026-04-15T13:24:44Z</time></trkpt><trkpt lat="49.10717557696606" lon="4.908439605051928"><ele>178.0</ele><time>2026-04-15T13:24:46Z</time></trkpt><trkpt lat="49.10714944124561" lon="4.908264723614003"><ele>178.0</ele><time>2026-04-15T13:24:48Z</time></trkpt><trkpt lat="49.10711334146629" lon="4.90807905857154"><ele>178.0</ele><time>2026-04-15T13:24:50Z</time></trkpt><trkpt lat="49.10709401277567" lon="4.907983478058085"><ele>178.0</ele><time>2026-04-15T13:24:51Z</time></trkpt><trkpt lat="49.107071606125686" lon="4.907884358158023"><ele>177.99999999999997</ele><time>2026-04-15T13:24:52Z</time></trkpt><trkpt lat="49.10704686124518" lon="4.907787698620196"><ele>178.0</ele><time>2026-04-15T13:24:53Z</time></trkpt><trkpt lat="49.107019732719586" lon="4.907694130393643"><ele>178.0</ele><time>2026-04-15T13:24:54Z</time></trkpt><trkpt lat="49.10699259398346" lon="4.907594808265342"><ele>178.0</ele><time>2026-04-15T13:24:55Z</time></trkpt><trkpt lat="49.106966846389895" lon="4.907492795702052"><ele>178.0</ele><time>2026-04-15T13:24:56Z</time></trkpt><trkpt lat="49.10694239094758" lon="4.907395144761936"><ele>177.99999999999997</ele><time>2026-04-15T13:24:57Z</time></trkpt><trkpt lat="49.10691687338501" lon="4.907292909214402"><ele>178.0</ele><time>2026-04-15T13:24:58Z</time></trkpt><trkpt lat="49.10688969668339" lon="4.907184063265795"><ele>177.85714285714283</ele><time>2026-04-15T13:24:59Z</time></trkpt><trkpt lat="49.106861809308946" lon="4.907083914137533"><ele>177.71428571428572</ele><time>2026-04-15T13:25:00Z</time></trkpt><trkpt lat="49.106833392460715" lon="4.906981730052093"><ele>177.57142857142856</ele><time>2026-04-15T13:25:01Z</time></trkpt><trkpt lat="49.10680502910361" lon="4.906876189075337"><ele>177.42857142857142</ele><time>2026-04-15T13:25:02Z</time></trkpt><trkpt lat="49.106776882312985" lon="4.906769491065627"><ele>177.28571428571428</ele><time>2026-04-15T13:25:03Z</time></trkpt><trkpt lat="49.10674741445089" lon="4.906659936968001"><ele>177.14285714285714</ele><time>2026-04-15T13:25:04Z</time></trkpt><trkpt lat="49.10671842311648" lon="4.906558834931982"><ele>177.0</ele><time>2026-04-15T13:25:05Z</time></trkpt><trkpt lat="49.10669077608371" lon="4.906453470222363"><ele>177.0</ele><time>2026-04-15T13:25:06Z</time></trkpt><trkpt lat="49.10666242564952" lon="4.906353545940104"><ele>177.0</ele><time>2026-04-15T13:25:07Z</time></trkpt><trkpt lat="49.106637109232516" lon="4.906251200253642"><ele>177.0</ele><time>2026-04-15T13:25:08Z</time></trkpt><trkpt lat="49.10660821868755" lon="4.906148100962845"><ele>177.0</ele><time>2026-04-15T13:25:09Z</time></trkpt><trkpt lat="49.10657921553234" lon="4.906050149764623"><ele>177.0</ele><time>2026-04-15T13:25:10Z</time></trkpt><trkpt lat="49.106550784872574" lon="4.905951680291536"><ele>177.0</ele><time>2026-04-15T13:25:11Z</time></trkpt><trkpt lat="49.10652505877669" lon="4.905856496106482"><ele>177.0</ele><time>2026-04-15T13:25:12Z</time></trkpt><trkpt lat="49.10649900947237" lon="4.905759007543405"><ele>176.42857142857144</ele><time>2026-04-15T13:25:13Z</time></trkpt><trkpt lat="49.10647238297438" lon="4.905662616011506"><ele>175.85714285714283</ele><time>2026-04-15T13:25:14Z</time></trkpt><trkpt lat="49.106446249710686" lon="4.905570586127245"><ele>175.28571428571428</ele><time>2026-04-15T13:25:15Z</time></trkpt><trkpt lat="49.10642171615756" lon="4.9054792263312725"><ele>174.71428571428572</ele><time>2026-04-15T13:25:16Z</time></trkpt><trkpt lat="49.106395529058965" lon="4.90538662238507"><ele>174.14285714285717</ele><time>2026-04-15T13:25:17Z</time></trkpt><trkpt lat="49.10637014493554" lon="4.905297958165346"><ele>173.57142857142856</ele><time>2026-04-15T13:25:18Z</time></trkpt><trkpt lat="49.10634428455421" lon="4.905207754781711"><ele>173.0</ele><time>2026-04-15T13:25:19Z</time></trkpt><trkpt lat="49.106298760752196" lon="4.905032464028773"><ele>173.0</ele><time>2026-04-15T13:25:21Z</time></trkpt><trkpt lat="49.10624754134067" lon="4.904860945888009"><ele>173.0</ele><time>2026-04-15T13:25:23Z</time></trkpt><trkpt lat="49.10620007988705" lon="4.90469472820447"><ele>173.0</ele><time>2026-04-15T13:25:25Z</time></trkpt><trkpt lat="49.1061649326603" lon="4.904522790618061"><ele>173.0</ele><time>2026-04-15T13:25:27Z</time></trkpt><trkpt lat="49.106126302903085" lon="4.904357089116044"><ele>172.8</ele><time>2026-04-15T13:25:29Z</time></trkpt><trkpt lat="49.106089836199565" lon="4.904193494645355"><ele>172.60000000000002</ele><time>2026-04-15T13:25:31Z</time></trkpt><trkpt lat="49.10605941173948" lon="4.904027807170726"><ele>172.39999999999998</ele><time>2026-04-15T13:25:33Z</time></trkpt><trkpt lat="49.106034388935015" lon="4.903863857643041"><ele>172.2</ele><time>2026-04-15T13:25:35Z</time></trkpt><trkpt lat="49.106007953281804" lon="4.903709920801558"><ele>172.0</ele><time>2026-04-15T13:25:37Z</time></trkpt><trkpt lat="49.10598549675331" lon="4.9035737276711835"><ele>172.0</ele><time>2026-04-15T13:25:39Z</time></trkpt><trkpt lat="49.10596794777817" lon="4.903455028513278"><ele>172.0</ele><time>2026-04-15T13:25:41Z</time></trkpt><trkpt lat="49.10594833309084" lon="4.9033406856331725"><ele>172.0</ele><time>2026-04-15T13:25:43Z</time></trkpt><trkpt lat="49.10594103160381" lon="4.903238424128269"><ele>172.0</ele><time>2026-04-15T13:25:45Z</time></trkpt><trkpt lat="49.105947276983045" lon="4.903116154914778"><ele>172.0</ele><time>2026-04-15T13:25:48Z</time></trkpt><trkpt lat="49.10595284600481" lon="4.903013294407557"><ele>172.0</ele><time>2026-04-15T13:25:58Z</time></trkpt><trkpt lat="49.105941151758756" lon="4.902891005430835"><ele>171.83333333333334</ele><time>2026-04-15T13:26:02Z</time></trkpt><trkpt lat="49.10589394848917" lon="4.902823953755362"><ele>171.66666666666669</ele><time>2026-04-15T13:26:04Z</time></trkpt><trkpt lat="49.10583373340983" lon="4.90274420354892"><ele>171.5</ele><time>2026-04-15T13:26:06Z</time></trkpt><trkpt lat="49.10576535951207" lon="4.902661386203339"><ele>171.33333333333334</ele><time>2026-04-15T13:26:08Z</time></trkpt><trkpt lat="49.10568928782323" lon="4.90257638198968"><ele>171.16666666666666</ele><time>2026-04-15T13:26:10Z</time></trkpt><trkpt lat="49.105606252160236" lon="4.902494138288502"><ele>171.0</ele><time>2026-04-15T13:26:12Z</time></trkpt><trkpt lat="49.10551554257466" lon="4.902407860246769"><ele>170.0</ele><time>2026-04-15T13:26:14Z</time></trkpt><trkpt lat="49.105410764403125" lon="4.902329672864662"><ele>169.0</ele><time>2026-04-15T13:26:16Z</time></trkpt><trkpt lat="49.105297435049735" lon="4.9022565302137835"><ele>168.0</ele><time>2026-04-15T13:26:18Z</time></trkpt><trkpt lat="49.10523893840085" lon="4.902218963679966"><ele>167.0</ele><time>2026-04-15T13:26:19Z</time></trkpt><trkpt lat="49.105173678858755" lon="4.902184321144078"><ele>166.0</ele><time>2026-04-15T13:26:20Z</time></trkpt><trkpt lat="49.10510648783753" lon="4.902156708718489"><ele>165.0</ele><time>2026-04-15T13:26:21Z</time></trkpt><trkpt lat="49.10503632260129" lon="4.902123444706691"><ele>165.0</ele><time>2026-04-15T13:26:22Z</time></trkpt><trkpt lat="49.10496659782215" lon="4.902083764633012"><ele>165.0</ele><time>2026-04-15T13:26:23Z</time></trkpt><trkpt lat="49.10489614920255" lon="4.9020298776593085"><ele>165.0</ele><time>2026-04-15T13:26:24Z</time></trkpt><trkpt lat="49.10483062536564" lon="4.90197329002269"><ele>165.0</ele><time>2026-04-15T13:26:25Z</time></trkpt><trkpt lat="49.10476614143783" lon="4.901918298303782"><ele>165.0</ele><time>2026-04-15T13:26:26Z</time></trkpt><trkpt lat="49.10469857554439" lon="4.901852884999613"><ele>165.0</ele><time>2026-04-15T13:26:27Z</time></trkpt><trkpt lat="49.10463802060039" lon="4.901773737723581"><ele>164.0</ele><time>2026-04-15T13:26:28Z</time></trkpt><trkpt lat="49.10457855374493" lon="4.901700487764027"><ele>163.0</ele><time>2026-04-15T13:26:29Z</time></trkpt><trkpt lat="49.104516532578685" lon="4.901625723576929"><ele>162.0</ele><time>2026-04-15T13:26:30Z</time></trkpt><trkpt lat="49.104454866794725" lon="4.901552603194987"><ele>161.0</ele><time>2026-04-15T13:26:31Z</time></trkpt><trkpt lat="49.10439565887854" lon="4.901484277902747"><ele>160.0</ele><time>2026-04-15T13:26:32Z</time></trkpt><trkpt lat="49.104336019587336" lon="4.9014148453916375"><ele>159.0</ele><time>2026-04-15T13:26:33Z</time></trkpt><trkpt lat="49.10428172045296" lon="4.90134555694521"><ele>159.0</ele><time>2026-04-15T13:26:34Z</time></trkpt><trkpt lat="49.10422064015224" lon="4.901267927661617"><ele>159.0</ele><time>2026-04-15T13:26:35Z</time></trkpt><trkpt lat="49.104163739423996" lon="4.901196577218437"><ele>159.0</ele><time>2026-04-15T13:26:36Z</time></trkpt><trkpt lat="49.10410278445461" lon="4.90113180881248"><ele>159.0</ele><time>2026-04-15T13:26:37Z</time></trkpt><trkpt lat="49.10400112135841" lon="4.901006757371325"><ele>159.0</ele><time>2026-04-15T13:26:39Z</time></trkpt><trkpt lat="49.103935362732386" lon="4.900944163172183"><ele>159.0</ele><time>2026-04-15T13:26:40Z</time></trkpt><trkpt lat="49.10382684417317" lon="4.900841426215171"><ele>158.83333333333334</ele><time>2026-04-15T13:26:42Z</time></trkpt><trkpt lat="49.103770701255314" lon="4.900796130887794"><ele>158.66666666666666</ele><time>2026-04-15T13:26:43Z</time></trkpt><trkpt lat="49.10370950027385" lon="4.900746065869423"><ele>158.5</ele><time>2026-04-15T13:26:44Z</time></trkpt><trkpt lat="49.103602705348486" lon="4.900648167791356"><ele>158.33333333333331</ele><time>2026-04-15T13:26:46Z</time></trkpt><trkpt lat="49.103546174030946" lon="4.900602389268422"><ele>158.16666666666666</ele><time>2026-04-15T13:26:47Z</time></trkpt><trkpt lat="49.10348929153926" lon="4.9005586555741685"><ele>158.0</ele><time>2026-04-15T13:26:48Z</time></trkpt><trkpt lat="49.10338703294714" lon="4.900469345876029"><ele>158.0</ele><time>2026-04-15T13:26:50Z</time></trkpt><trkpt lat="49.10328968986574" lon="4.90037710537458"><ele>158.0</ele><time>2026-04-15T13:26:52Z</time></trkpt><trkpt lat="49.103197186021674" lon="4.900290603534773"><ele>158.0</ele><time>2026-04-15T13:26:54Z</time></trkpt><trkpt lat="49.10311212355628" lon="4.900227773260124"><ele>158.0</ele><time>2026-04-15T13:26:56Z</time></trkpt><trkpt lat="49.10301252367479" lon="4.9001665580803095"><ele>158.0</ele><time>2026-04-15T13:26:58Z</time></trkpt><trkpt lat="49.1029342898252" lon="4.900083562998571"><ele>158.20000000000002</ele><time>2026-04-15T13:27:00Z</time></trkpt><trkpt lat="49.102848064248626" lon="4.9000123706659195"><ele>158.4</ele><time>2026-04-15T13:27:02Z</time></trkpt><trkpt lat="49.10275685747414" lon="4.899948979775073"><ele>158.60000000000002</ele><time>2026-04-15T13:27:04Z</time></trkpt><trkpt lat="49.102673690877374" lon="4.89988048770639"><ele>158.8</ele><time>2026-04-15T13:27:06Z</time></trkpt><trkpt lat="49.102585497109025" lon="4.899820246544918"><ele>159.0</ele><time>2026-04-15T13:27:08Z</time></trkpt><trkpt lat="49.10250201598128" lon="4.899765721817816"><ele>159.0</ele><time>2026-04-15T13:27:10Z</time></trkpt><trkpt lat="49.10241567357201" lon="4.89970783747972"><ele>159.0</ele><time>2026-04-15T13:27:12Z</time></trkpt><trkpt lat="49.1023295589337" lon="4.899647619446172"><ele>159.0</ele><time>2026-04-15T13:27:14Z</time></trkpt><trkpt lat="49.102244724268544" lon="4.899593371943589"><ele>159.0</ele><time>2026-04-15T13:27:16Z</time></trkpt><trkpt lat="49.10215101695062" lon="4.899545092046481"><ele>159.0</ele><time>2026-04-15T13:27:18Z</time></trkpt><trkpt lat="49.102071838755606" lon="4.899494900795772"><ele>157.4</ele><time>2026-04-15T13:27:20Z</time></trkpt><trkpt lat="49.10198250653357" lon="4.899450284724663"><ele>155.8</ele><time>2026-04-15T13:27:22Z</time></trkpt><trkpt lat="49.10189310578847" lon="4.899409588357776"><ele>154.2</ele><time>2026-04-15T13:27:24Z</time></trkpt><trkpt lat="49.10180190379581" lon="4.8993669636757495"><ele>152.6</ele><time>2026-04-15T13:27:26Z</time></trkpt><trkpt lat="49.10172261134992" lon="4.8993195975954285"><ele>151.0</ele><time>2026-04-15T13:27:28Z</time></trkpt><trkpt lat="49.10163015107432" lon="4.899272194646357"><ele>153.0</ele><time>2026-04-15T13:27:30Z</time></trkpt><trkpt lat="49.10154941612224" lon="4.899233048243901"><ele>155.0</ele><time>2026-04-15T13:27:32Z</time></trkpt><trkpt lat="49.10146022555787" lon="4.899186052736336"><ele>157.0</ele><time>2026-04-15T13:27:34Z</time></trkpt><trkpt lat="49.10137607798205" lon="4.899135250585878"><ele>159.0</ele><time>2026-04-15T13:27:36Z</time></trkpt><trkpt lat="49.101289621947124" lon="4.899078294372946"><ele>161.0</ele><time>2026-04-15T13:27:38Z</time></trkpt><trkpt lat="49.10121142437125" lon="4.8990207922593365"><ele>161.0</ele><time>2026-04-15T13:27:40Z</time></trkpt><trkpt lat="49.10113842603113" lon="4.898962782701029"><ele>161.0</ele><time>2026-04-15T13:27:42Z</time></trkpt><trkpt lat="49.1010629291718" lon="4.898902811342885"><ele>161.0</ele><time>2026-04-15T13:27:44Z</time></trkpt><trkpt lat="49.10099130207188" lon="4.898839739221144"><ele>161.0</ele><time>2026-04-15T13:27:46Z</time></trkpt><trkpt lat="49.10091328840094" lon="4.898777189556535"><ele>161.0</ele><time>2026-04-15T13:27:48Z</time></trkpt><trkpt lat="49.100841233281734" lon="4.898706226871167"><ele>161.0</ele><time>2026-04-15T13:27:50Z</time></trkpt><trkpt lat="49.10077199458512" lon="4.898635559745071"><ele>161.20000000000002</ele><time>2026-04-15T13:27:52Z</time></trkpt><trkpt lat="49.100690858631125" lon="4.89856658856369"><ele>161.4</ele><time>2026-04-15T13:27:54Z</time></trkpt><trkpt lat="49.10061481134317" lon="4.898493348494579"><ele>161.6</ele><time>2026-04-15T13:27:56Z</time></trkpt><trkpt lat="49.10054744174172" lon="4.898420166582579"><ele>161.8</ele><time>2026-04-15T13:27:58Z</time></trkpt><trkpt lat="49.100474681774024" lon="4.898339902020954"><ele>162.0</ele><time>2026-04-15T13:28:00Z</time></trkpt><trkpt lat="49.10039129629347" lon="4.898259708685589"><ele>162.5</ele><time>2026-04-15T13:28:02Z</time></trkpt><trkpt lat="49.10032077392929" lon="4.8981686888373215"><ele>163.0</ele><time>2026-04-15T13:28:04Z</time></trkpt><trkpt lat="49.10025400936435" lon="4.89807536595267"><ele>163.5</ele><time>2026-04-15T13:28:06Z</time></trkpt><trkpt lat="49.100196037350294" lon="4.897984101061159"><ele>164.0</ele><time>2026-04-15T13:28:08Z</time></trkpt><trkpt lat="49.10014736227684" lon="4.897892831916885"><ele>164.5</ele><time>2026-04-15T13:28:10Z</time></trkpt><trkpt lat="49.10010039504523" lon="4.8978029365568725"><ele>165.0</ele><time>2026-04-15T13:28:12Z</time></trkpt><trkpt lat="49.10005186064965" lon="4.897690171301603"><ele>164.8</ele><time>2026-04-15T13:28:14Z</time></trkpt><trkpt lat="49.10000598096051" lon="4.8975673159716635"><ele>164.6</ele><time>2026-04-15T13:28:16Z</time></trkpt><trkpt lat="49.09995954994216" lon="4.897438619395055"><ele>164.39999999999998</ele><time>2026-04-15T13:28:18Z</time></trkpt><trkpt lat="49.099910380129145" lon="4.89728932325071"><ele>164.2</ele><time>2026-04-15T13:28:20Z</time></trkpt><trkpt lat="49.099865695117465" lon="4.897161012968949"><ele>164.0</ele><time>2026-04-15T13:28:22Z</time></trkpt><trkpt lat="49.09982539724514" lon="4.897035607481338"><ele>162.5</ele><time>2026-04-15T13:28:24Z</time></trkpt><trkpt lat="49.09978757325007" lon="4.896922181592967"><ele>161.0</ele><time>2026-04-15T13:28:26Z</time></trkpt><trkpt lat="49.09974939894756" lon="4.896808123578332"><ele>159.5</ele><time>2026-04-15T13:28:28Z</time></trkpt><trkpt lat="49.09972220742204" lon="4.896702412354013"><ele>158.0</ele><time>2026-04-15T13:28:30Z</time></trkpt><trkpt lat="49.09969352060742" lon="4.896584148317066"><ele>156.5</ele><time>2026-04-15T13:28:32Z</time></trkpt><trkpt lat="49.099650750555206" lon="4.89644229547828"><ele>155.0</ele><time>2026-04-15T13:28:34Z</time></trkpt><trkpt lat="49.099608926537286" lon="4.8962999954864035"><ele>155.0</ele><time>2026-04-15T13:28:36Z</time></trkpt><trkpt lat="49.099572792622475" lon="4.896155099126184"><ele>155.0</ele><time>2026-04-15T13:28:38Z</time></trkpt><trkpt lat="49.09953386308803" lon="4.895999025719928"><ele>155.0</ele><time>2026-04-15T13:28:40Z</time></trkpt><trkpt lat="49.099496504805046" lon="4.895853684974499"><ele>155.0</ele><time>2026-04-15T13:28:42Z</time></trkpt><trkpt lat="49.099460480734976" lon="4.895723592567019"><ele>155.0</ele><time>2026-04-15T13:28:44Z</time></trkpt><trkpt lat="49.0994262013367" lon="4.895607110790227"><ele>155.5</ele><time>2026-04-15T13:28:46Z</time></trkpt><trkpt lat="49.099390394977725" lon="4.8954911644299575"><ele>156.0</ele><time>2026-04-15T13:28:48Z</time></trkpt><trkpt lat="49.09936147836352" lon="4.89537201276966"><ele>156.5</ele><time>2026-04-15T13:28:50Z</time></trkpt><trkpt lat="49.0993393814268" lon="4.895255814781967"><ele>157.0</ele><time>2026-04-15T13:28:52Z</time></trkpt><trkpt lat="49.09933099386786" lon="4.8951157746426075"><ele>157.5</ele><time>2026-04-15T13:28:55Z</time></trkpt><trkpt lat="49.09931235684077" lon="4.895012251868133"><ele>158.0</ele><time>2026-04-15T13:28:57Z</time></trkpt><trkpt lat="49.09926369054887" lon="4.89489572041026"><ele>158.4</ele><time>2026-04-15T13:28:59Z</time></trkpt><trkpt lat="49.099197835368024" lon="4.8947678956955984"><ele>158.8</ele><time>2026-04-15T13:29:01Z</time></trkpt><trkpt lat="49.09914819153425" lon="4.894669202121822"><ele>159.2</ele><time>2026-04-15T13:29:03Z</time></trkpt><trkpt lat="49.099092914156635" lon="4.8945330996334135"><ele>159.6</ele><time>2026-04-15T13:29:05Z</time></trkpt><trkpt lat="49.09903310364011" lon="4.894413390631037"><ele>160.0</ele><time>2026-04-15T13:29:07Z</time></trkpt><trkpt lat="49.09896742754445" lon="4.894292334934636"><ele>159.2</ele><time>2026-04-15T13:29:09Z</time></trkpt><trkpt lat="49.09890577157636" lon="4.894176592238149"><ele>158.4</ele><time>2026-04-15T13:29:11Z</time></trkpt><trkpt lat="49.098844510803815" lon="4.894067011170023"><ele>157.6</ele><time>2026-04-15T13:29:13Z</time></trkpt><trkpt lat="49.0987905903434" lon="4.893954309628725"><ele>156.8</ele><time>2026-04-15T13:29:15Z</time></trkpt><trkpt lat="49.09873253573733" lon="4.893852591247634"><ele>156.0</ele><time>2026-04-15T13:29:17Z</time></trkpt><trkpt lat="49.0986691777393" lon="4.893755025762632"><ele>156.0</ele><time>2026-04-15T13:29:19Z</time></trkpt><trkpt lat="49.098601533267605" lon="4.893644156214728"><ele>156.0</ele><time>2026-04-15T13:29:21Z</time></trkpt><trkpt lat="49.09853136369338" lon="4.893532129126752"><ele>156.0</ele><time>2026-04-15T13:29:23Z</time></trkpt><trkpt lat="49.09846730543133" lon="4.893423322344174"><ele>156.0</ele><time>2026-04-15T13:29:25Z</time></trkpt><trkpt lat="49.09839879109071" lon="4.893324301615053"><ele>156.0</ele><time>2026-04-15T13:29:27Z</time></trkpt><trkpt lat="49.098327270077945" lon="4.893239391298958"><ele>156.6</ele><time>2026-04-15T13:29:29Z</time></trkpt><trkpt lat="49.09825444824146" lon="4.893159638535188"><ele>157.2</ele><time>2026-04-15T13:29:31Z</time></trkpt><trkpt lat="49.09818417983068" lon="4.89308428165205"><ele>157.8</ele><time>2026-04-15T13:29:33Z</time></trkpt><trkpt lat="49.09810751388122" lon="4.893011663703354"><ele>158.4</ele><time>2026-04-15T13:29:35Z</time></trkpt><trkpt lat="49.09803111795246" lon="4.892936954751485"><ele>159.0</ele><time>2026-04-15T13:29:37Z</time></trkpt><trkpt lat="49.09794964620757" lon="4.892855421116064"><ele>158.0</ele><time>2026-04-15T13:29:39Z</time></trkpt><trkpt lat="49.09786616056771" lon="4.892765478437206"><ele>157.0</ele><time>2026-04-15T13:29:41Z</time></trkpt><trkpt lat="49.097784852598885" lon="4.892678737643733"><ele>156.0</ele><time>2026-04-15T13:29:43Z</time></trkpt><trkpt lat="49.09769887112869" lon="4.89258036178379"><ele>155.0</ele><time>2026-04-15T13:29:45Z</time></trkpt><trkpt lat="49.09761510869213" lon="4.892477555437111"><ele>154.0</ele><time>2026-04-15T13:29:47Z</time></trkpt><trkpt lat="49.09752629296611" lon="4.892383533579508"><ele>154.0</ele><time>2026-04-15T13:29:49Z</time></trkpt><trkpt lat="49.097424085592436" lon="4.8922831063305585"><ele>154.0</ele><time>2026-04-15T13:29:51Z</time></trkpt><trkpt lat="49.09737287996291" lon="4.892220860982456"><ele>154.0</ele><time>2026-04-15T13:29:52Z</time></trkpt><trkpt lat="49.09727654141938" lon="4.892106264829018"><ele>154.0</ele><time>2026-04-15T13:29:54Z</time></trkpt><trkpt lat="49.0972238741177" lon="4.892049000079407"><ele>154.0</ele><time>2026-04-15T13:29:55Z</time></trkpt><trkpt lat="49.097165253958735" lon="4.891986923795239"><ele>154.0</ele><time>2026-04-15T13:29:56Z</time></trkpt><trkpt lat="49.09710652254933" lon="4.891923811274053"><ele>153.0</ele><time>2026-04-15T13:29:57Z</time></trkpt><trkpt lat="49.09704567352543" lon="4.891859593149339"><ele>152.0</ele><time>2026-04-15T13:29:58Z</time></trkpt><trkpt lat="49.09698450722681" lon="4.891796450576583"><ele>151.0</ele><time>2026-04-15T13:29:59Z</time></trkpt><trkpt lat="49.09691944494524" lon="4.891731789463607"><ele>150.0</ele><time>2026-04-15T13:30:00Z</time></trkpt><trkpt lat="49.096846021268384" lon="4.8916653150943485"><ele>149.0</ele><time>2026-04-15T13:30:01Z</time></trkpt><trkpt lat="49.09677620852846" lon="4.8915870203063205"><ele>148.0</ele><time>2026-04-15T13:30:02Z</time></trkpt><trkpt lat="49.09670040813723" lon="4.891509651354836"><ele>148.0</ele><time>2026-04-15T13:30:03Z</time></trkpt><trkpt lat="49.09661747376453" lon="4.891435270827807"><ele>148.0</ele><time>2026-04-15T13:30:04Z</time></trkpt><trkpt lat="49.09653138264256" lon="4.891362287900116"><ele>148.0</ele><time>2026-04-15T13:30:05Z</time></trkpt><trkpt lat="49.096452892590584" lon="4.8912948285556315"><ele>148.0</ele><time>2026-04-15T13:30:06Z</time></trkpt><trkpt lat="49.09637322506346" lon="4.8912258044502765"><ele>148.0</ele><time>2026-04-15T13:30:07Z</time></trkpt><trkpt lat="49.096283836708274" lon="4.891157130265666"><ele>147.0</ele><time>2026-04-15T13:30:08Z</time></trkpt><trkpt lat="49.096194239797605" lon="4.891089717560311"><ele>146.0</ele><time>2026-04-15T13:30:09Z</time></trkpt><trkpt lat="49.09610422213455" lon="4.891017407241245"><ele>145.0</ele><time>2026-04-15T13:30:10Z</time></trkpt><trkpt lat="49.09601213770566" lon="4.890950049974774"><ele>144.0</ele><time>2026-04-15T13:30:11Z</time></trkpt><trkpt lat="49.095918330907914" lon="4.890890246742942"><ele>143.0</ele><time>2026-04-15T13:30:12Z</time></trkpt><trkpt lat="49.09581742513878" lon="4.89084065770901"><ele>142.20000000000002</ele><time>2026-04-15T13:30:13Z</time></trkpt><trkpt lat="49.09572442990419" lon="4.890795429044155"><ele>141.4</ele><time>2026-04-15T13:30:14Z</time></trkpt><trkpt lat="49.09562274558252" lon="4.890753234608575"><ele>140.60000000000002</ele><time>2026-04-15T13:30:15Z</time></trkpt><trkpt lat="49.09552649111318" lon="4.8907151771801916"><ele>139.8</ele><time>2026-04-15T13:30:16Z</time></trkpt><trkpt lat="49.09543036737592" lon="4.890682117662154"><ele>139.0</ele><time>2026-04-15T13:30:17Z</time></trkpt><trkpt lat="49.09533789698575" lon="4.89062182077949"><ele>139.0</ele><time>2026-04-15T13:30:18Z</time></trkpt><trkpt lat="49.09523687487391" lon="4.890620747764355"><ele>139.0</ele><time>2026-04-15T13:30:19Z</time></trkpt><trkpt lat="49.09513597645344" lon="4.8905993728827895"><ele>139.0</ele><time>2026-04-15T13:30:20Z</time></trkpt><trkpt lat="49.095037351280354" lon="4.890592399035001"><ele>139.0</ele><time>2026-04-15T13:30:21Z</time></trkpt><trkpt lat="49.09494047781406" lon="4.890595886449769"><ele>139.0</ele><time>2026-04-15T13:30:22Z</time></trkpt><trkpt lat="49.09483494007669" lon="4.8906042699120285"><ele>138.2</ele><time>2026-04-15T13:30:23Z</time></trkpt><trkpt lat="49.094751406806125" lon="4.890610928423387"><ele>137.4</ele><time>2026-04-15T13:30:24Z</time></trkpt><trkpt lat="49.094654821507696" lon="4.890624417744583"><ele>136.6</ele><time>2026-04-15T13:30:25Z</time></trkpt><trkpt lat="49.09456071620014" lon="4.890640308548337"><ele>135.8</ele><time>2026-04-15T13:30:26Z</time></trkpt><trkpt lat="49.094461925105264" lon="4.890661152859067"><ele>135.0</ele><time>2026-04-15T13:30:27Z</time></trkpt><trkpt lat="49.094371068007895" lon="4.890688963949712"><ele>135.0</ele><time>2026-04-15T13:30:28Z</time></trkpt><trkpt lat="49.09428258318466" lon="4.890725871646252"><ele>135.0</ele><time>2026-04-15T13:30:29Z</time></trkpt><trkpt lat="49.0942054227284" lon="4.89076021194907"><ele>135.0</ele><time>2026-04-15T13:30:30Z</time></trkpt><trkpt lat="49.09412958920714" lon="4.890791260440217"><ele>135.0</ele><time>2026-04-15T13:30:31Z</time></trkpt><trkpt lat="49.09405784274189" lon="4.89082677507221"><ele>135.0</ele><time>2026-04-15T13:30:32Z</time></trkpt><trkpt lat="49.09398912620059" lon="4.89086095425183"><ele>135.0</ele><time>2026-04-15T13:30:33Z</time></trkpt><trkpt lat="49.09392205359517" lon="4.890891230526611"><ele>135.0</ele><time>2026-04-15T13:30:34Z</time></trkpt><trkpt lat="49.093862273229114" lon="4.8909214009408"><ele>135.0</ele><time>2026-04-15T13:30:35Z</time></trkpt><trkpt lat="49.09379989392216" lon="4.890949143172278"><ele>135.0</ele><time>2026-04-15T13:30:36Z</time></trkpt><trkpt lat="49.09373759192227" lon="4.890977480254626"><ele>135.0</ele><time>2026-04-15T13:30:37Z</time></trkpt><trkpt lat="49.09367546431869" lon="4.891009955627748"><ele>135.0</ele><time>2026-04-15T13:30:38Z</time></trkpt><trkpt lat="49.093615377724475" lon="4.891043985640236"><ele>135.0</ele><time>2026-04-15T13:30:39Z</time></trkpt><trkpt lat="49.09355233560672" lon="4.891074507765214"><ele>135.0</ele><time>2026-04-15T13:30:40Z</time></trkpt><trkpt lat="49.093491136283056" lon="4.891106779212656"><ele>134.83333333333334</ele><time>2026-04-15T13:30:41Z</time></trkpt><trkpt lat="49.09342249508674" lon="4.891141868222661"><ele>134.66666666666666</ele><time>2026-04-15T13:30:42Z</time></trkpt><trkpt lat="49.093301083677545" lon="4.891212010839016"><ele>134.5</ele><time>2026-04-15T13:30:44Z</time></trkpt><trkpt lat="49.09323083157183" lon="4.891247939281474"><ele>134.33333333333331</ele><time>2026-04-15T13:30:45Z</time></trkpt><trkpt lat="49.09316924475451" lon="4.8912810238014846"><ele>134.16666666666666</ele><time>2026-04-15T13:30:46Z</time></trkpt><trkpt lat="49.09310705331438" lon="4.891312548326395"><ele>134.0</ele><time>2026-04-15T13:30:47Z</time></trkpt><trkpt lat="49.093044536263044" lon="4.891346199891928"><ele>134.4</ele><time>2026-04-15T13:30:48Z</time></trkpt><trkpt lat="49.09298203463021" lon="4.891377240168261"><ele>134.8</ele><time>2026-04-15T13:30:49Z</time></trkpt><trkpt lat="49.09287007567551" lon="4.891433887181338"><ele>135.2</ele><time>2026-04-15T13:30:51Z</time></trkpt><trkpt lat="49.09275070756585" lon="4.891502838141626"><ele>135.6</ele><time>2026-04-15T13:30:53Z</time></trkpt><trkpt lat="49.09269300612686" lon="4.891547469903785"><ele>136.0</ele><time>2026-04-15T13:30:54Z</time></trkpt><trkpt lat="49.092606404728265" lon="4.8916466017158635"><ele>136.0</ele><time>2026-04-15T13:30:56Z</time></trkpt><trkpt lat="49.09252894967985" lon="4.891756476011765"><ele>136.0</ele><time>2026-04-15T13:30:58Z</time></trkpt><trkpt lat="49.09245596675533" lon="4.891846661768221"><ele>136.0</ele><time>2026-04-15T13:31:00Z</time></trkpt><trkpt lat="49.0923800461102" lon="4.891926858150932"><ele>136.0</ele><time>2026-04-15T13:31:02Z</time></trkpt><trkpt lat="49.09228975484676" lon="4.891984972674523"><ele>136.0</ele><time>2026-04-15T13:31:04Z</time></trkpt><trkpt lat="49.092189555476494" lon="4.89199303123241"><ele>136.4</ele><time>2026-04-15T13:31:06Z</time></trkpt><trkpt lat="49.092098077703895" lon="4.891940959512907"><ele>136.8</ele><time>2026-04-15T13:31:08Z</time></trkpt><trkpt lat="49.09200963680129" lon="4.89189246122892"><ele>137.20000000000002</ele><time>2026-04-15T13:31:10Z</time></trkpt><trkpt lat="49.09190733865203" lon="4.891842603102382"><ele>137.6</ele><time>2026-04-15T13:31:12Z</time></trkpt><trkpt lat="49.09180488035077" lon="4.891829534361959"><ele>138.0</ele><time>2026-04-15T13:31:14Z</time></trkpt><trkpt lat="49.091710600881505" lon="4.891861350191649"><ele>138.0</ele><time>2026-04-15T13:31:16Z</time></trkpt><trkpt lat="49.09160008128826" lon="4.891924753160319"><ele>138.0</ele><time>2026-04-15T13:31:18Z</time></trkpt><trkpt lat="49.09150369616371" lon="4.891965153635397"><ele>138.0</ele><time>2026-04-15T13:31:20Z</time></trkpt><trkpt lat="49.09142064070913" lon="4.8920517332731706"><ele>138.0</ele><time>2026-04-15T13:31:22Z</time></trkpt><trkpt lat="49.091332856839394" lon="4.892088702035678"><ele>138.0</ele><time>2026-04-15T13:31:24Z</time></trkpt><trkpt lat="49.09132962092845" lon="4.892303935545577"><ele>138.0</ele><time>2026-04-15T13:31:27Z</time></trkpt><trkpt lat="49.09135635297324" lon="4.892426243269517"><ele>138.0</ele><time>2026-04-15T13:31:29Z</time></trkpt><trkpt lat="49.09139861591464" lon="4.892543167584879"><ele>138.0</ele><time>2026-04-15T13:31:31Z</time></trkpt><trkpt lat="49.091434586637355" lon="4.892649671233416"><ele>138.0</ele><time>2026-04-15T13:31:33Z</time></trkpt><trkpt lat="49.091473637965315" lon="4.892726540299128"><ele>138.0</ele><time>2026-04-15T13:31:34Z</time></trkpt><trkpt lat="49.091517609581416" lon="4.892867905938692"><ele>138.0</ele><time>2026-04-15T13:31:36Z</time></trkpt><trkpt lat="49.09154874485687" lon="4.893018555805636"><ele>138.20000000000002</ele><time>2026-04-15T13:31:38Z</time></trkpt><trkpt lat="49.09157816141764" lon="4.893153986423554"><ele>138.4</ele><time>2026-04-15T13:31:40Z</time></trkpt><trkpt lat="49.09160322907846" lon="4.893285176979687"><ele>138.60000000000002</ele><time>2026-04-15T13:31:42Z</time></trkpt><trkpt lat="49.091625556207276" lon="4.893416030528643"><ele>138.8</ele><time>2026-04-15T13:31:44Z</time></trkpt><trkpt lat="49.09167162041511" lon="4.893543262930026"><ele>139.0</ele><time>2026-04-15T13:31:46Z</time></trkpt><trkpt lat="49.0917026479609" lon="4.89366726351873"><ele>139.0</ele><time>2026-04-15T13:31:48Z</time></trkpt><trkpt lat="49.091728748566766" lon="4.89380272405667"><ele>139.0</ele><time>2026-04-15T13:31:50Z</time></trkpt><trkpt lat="49.09174787949831" lon="4.893933131804686"><ele>139.0</ele><time>2026-04-15T13:31:52Z</time></trkpt><trkpt lat="49.09177087997635" lon="4.894071188695235"><ele>139.0</ele><time>2026-04-15T13:31:54Z</time></trkpt><trkpt lat="49.09181984560419" lon="4.894220490374972"><ele>139.0</ele><time>2026-04-15T13:31:56Z</time></trkpt><trkpt lat="49.09184655017228" lon="4.8943363468568695"><ele>139.16666666666669</ele><time>2026-04-15T13:31:59Z</time></trkpt><trkpt lat="49.09190495180915" lon="4.894457960965724"><ele>139.33333333333334</ele><time>2026-04-15T13:32:02Z</time></trkpt><trkpt lat="49.091946226819154" lon="4.894596762525731"><ele>139.5</ele><time>2026-04-15T13:32:05Z</time></trkpt><trkpt lat="49.092007071692144" lon="4.894681399398098"><ele>139.66666666666666</ele><time>2026-04-15T13:32:07Z</time></trkpt><trkpt lat="49.092055049265134" lon="4.894821841020078"><ele>139.83333333333331</ele><time>2026-04-15T13:32:10Z</time></trkpt><trkpt lat="49.09205308817162" lon="4.894920067656605"><ele>140.0</ele><time>2026-04-15T13:32:12Z</time></trkpt><trkpt lat="49.092086778577695" lon="4.895022363859835"><ele>140.0</ele><time>2026-04-15T13:32:14Z</time></trkpt><trkpt lat="49.092140814387534" lon="4.895169208197005"><ele>144.0</ele><time>2026-04-15T13:32:16Z</time></trkpt><trkpt lat="49.09217407130329" lon="4.8952629794391935"><ele>144.0</ele><time>2026-04-15T13:32:19Z</time></trkpt><trkpt lat="49.09221156996732" lon="4.895343235076345"><ele>144.0</ele><time>2026-04-15T13:32:23Z</time></trkpt></trkseg></trk></gpx>